createdAt,value
2023-03-06T00:01:58.032Z,57.90
2023-03-06T00:04:24.801Z,58.00
2023-03-06T00:06:51.791Z,58.10
2023-03-06T00:09:18.535Z,58.10
2023-03-06T00:11:45.300Z,58.00
2023-03-06T00:14:12.044Z,58.10
2023-03-06T00:16:38.824Z,58.10
2023-03-06T00:19:05.607Z,58.00
2023-03-06T00:21:32.302Z,58.00
2023-03-06T00:23:59.018Z,58.10
2023-03-06T00:26:25.836Z,58.00
2023-03-06T00:28:52.545Z,58.00
2023-03-06T00:31:19.257Z,58.00
2023-03-06T00:33:46.097Z,58.10
2023-03-06T00:36:12.858Z,58.10
2023-03-06T00:38:40.997Z,58.00
2023-03-06T00:41:09.580Z,58.10
2023-03-06T00:43:36.703Z,58.10
2023-03-06T00:46:03.900Z,58.00
2023-03-06T00:48:30.701Z,58.00
2023-03-06T00:50:57.403Z,58.10
2023-03-06T00:53:24.116Z,58.10
2023-03-06T00:55:51.350Z,58.10
2023-03-06T00:58:18.211Z,58.10
2023-03-06T01:00:45.538Z,58.10
2023-03-06T01:03:12.870Z,58.20
2023-03-06T01:05:39.762Z,58.20
2023-03-06T01:08:06.953Z,58.20
2023-03-06T01:10:33.749Z,58.10
2023-03-06T01:13:00.469Z,58.10
2023-03-06T01:15:27.172Z,58.10
2023-03-06T01:17:57.220Z,58.10
2023-03-06T01:20:24.175Z,58.10
2023-03-06T01:22:51.442Z,58.10
2023-03-06T01:25:18.301Z,58.10
2023-03-06T01:27:45.061Z,58.10
2023-03-06T01:30:12.653Z,58.10
2023-03-06T01:32:39.709Z,58.10
2023-03-06T01:35:07.388Z,58.10
2023-03-06T01:37:36.248Z,58.10
2023-03-06T01:40:04.090Z,58.20
2023-03-06T01:42:32.183Z,58.30
2023-03-06T01:45:02.116Z,58.20
2023-03-06T01:47:28.860Z,58.30
2023-03-06T01:49:57.812Z,58.20
2023-03-06T01:52:30.265Z,58.30
2023-03-06T01:55:04.283Z,58.30
2023-03-06T01:57:33.929Z,58.30
2023-03-06T02:00:09.092Z,58.30
2023-03-06T02:02:45.568Z,58.30
2023-03-06T02:05:12.419Z,58.30
2023-03-06T02:07:40.742Z,58.30
2023-03-06T02:10:08.244Z,58.20
2023-03-06T02:12:35.096Z,58.30
2023-03-06T02:15:01.876Z,58.30
2023-03-06T02:17:29.668Z,58.30
2023-03-06T02:20:11.033Z,58.30
2023-03-06T02:22:53.517Z,58.40
2023-03-06T02:25:41.434Z,58.30
2023-03-06T02:28:11.471Z,58.30
2023-03-06T02:30:41.023Z,58.40
2023-03-06T02:33:08.201Z,58.40
2023-03-06T02:35:36.553Z,58.30
2023-03-06T02:38:08.762Z,58.40
2023-03-06T02:40:36.642Z,58.40
2023-03-06T02:43:03.763Z,59.10
2023-03-06T02:45:45.188Z,58.40
2023-03-06T02:48:13.270Z,58.50
2023-03-06T02:50:41.108Z,58.50
2023-03-06T02:53:09.021Z,58.50
2023-03-06T02:55:36.248Z,58.50
2023-03-06T02:58:03.715Z,58.50
2023-03-06T03:00:31.547Z,58.50
2023-03-06T03:03:00.553Z,58.50
2023-03-06T03:05:27.415Z,58.50
2023-03-06T03:08:00.083Z,58.60
2023-03-06T03:10:28.412Z,58.70
2023-03-06T03:12:55.422Z,58.70
2023-03-06T03:15:23.483Z,58.60
2023-03-06T03:17:50.253Z,58.70
2023-03-06T03:20:19.278Z,58.60
2023-03-06T03:22:54.941Z,59.30
2023-03-06T03:25:23.057Z,58.60
2023-03-06T03:27:50.599Z,58.60
2023-03-06T03:30:18.154Z,58.60
2023-03-06T03:32:45.441Z,58.60
2023-03-06T03:35:13.107Z,58.60
2023-03-06T03:37:40.954Z,58.60
2023-03-06T03:40:10.207Z,58.60
2023-03-06T03:42:37.299Z,58.60
2023-03-06T03:45:05.820Z,58.60
2023-03-06T03:47:32.540Z,58.60
2023-03-06T03:50:00.377Z,58.50
2023-03-06T03:52:27.379Z,58.60
2023-03-06T03:54:54.357Z,58.60
2023-03-06T03:57:21.167Z,58.50
2023-03-06T03:59:51.392Z,58.50
2023-03-06T04:02:25.553Z,58.50
2023-03-06T04:05:05.041Z,58.60
2023-03-06T04:07:32.339Z,58.60
2023-03-06T04:09:59.208Z,58.60
2023-03-06T04:12:27.351Z,58.60
2023-03-06T04:14:54.109Z,58.60
2023-03-06T04:17:22.021Z,58.60
2023-03-06T04:19:48.973Z,58.60
2023-03-06T04:22:16.921Z,58.60
2023-03-06T04:24:44.733Z,58.60
2023-03-06T04:27:11.751Z,58.60
2023-03-06T04:29:39.032Z,58.60
2023-03-06T04:32:06.138Z,58.60
2023-03-06T04:34:32.949Z,58.60
2023-03-06T04:37:00.440Z,58.70
2023-03-06T04:39:27.264Z,58.70
2023-03-06T04:41:54.833Z,58.70
2023-03-06T04:44:21.559Z,58.70
2023-03-06T04:46:48.600Z,58.70
2023-03-06T04:49:15.499Z,58.70
2023-03-06T04:51:42.227Z,58.80
2023-03-06T04:54:08.962Z,58.70
2023-03-06T04:56:35.705Z,58.80
2023-03-06T04:59:04.144Z,58.80
2023-03-06T05:01:30.927Z,58.80
2023-03-06T05:03:57.688Z,58.70
2023-03-06T05:06:24.436Z,58.70
2023-03-06T05:08:51.201Z,58.70
2023-03-06T05:11:17.958Z,58.70
2023-03-06T05:13:44.750Z,58.70
2023-03-06T05:16:11.539Z,58.80
2023-03-06T05:18:38.588Z,58.80
2023-03-06T05:21:06.014Z,58.80
2023-03-06T05:23:36.323Z,58.80
2023-03-06T05:26:07.275Z,58.80
2023-03-06T05:28:34.283Z,58.80
2023-03-06T05:31:03.385Z,58.80
2023-03-06T05:33:32.430Z,58.90
2023-03-06T05:35:59.296Z,58.90
2023-03-06T05:38:26.182Z,58.90
2023-03-06T05:40:52.970Z,58.90
2023-03-06T05:43:20.333Z,58.90
2023-03-06T05:45:47.157Z,58.90
2023-03-06T05:48:14.038Z,58.90
2023-03-06T05:50:40.801Z,58.90
2023-03-06T05:53:07.520Z,59.00
2023-03-06T05:55:34.281Z,58.90
2023-03-06T05:58:01.214Z,58.90
2023-03-06T06:00:28.297Z,59.00
2023-03-06T06:02:55.078Z,59.00
2023-03-06T06:05:21.891Z,59.00
2023-03-06T06:07:48.641Z,59.10
2023-03-06T06:10:15.448Z,59.10
2023-03-06T06:12:42.211Z,59.00
2023-03-06T06:15:09.293Z,59.00
2023-03-06T06:17:36.103Z,59.10
2023-03-06T06:20:03.472Z,59.10
2023-03-06T06:22:30.323Z,59.10
2023-03-06T06:24:57.137Z,59.10
2023-03-06T06:27:23.875Z,59.10
2023-03-06T06:29:52.336Z,59.10
2023-03-06T06:32:19.184Z,59.10
2023-03-06T06:34:45.955Z,59.20
2023-03-06T06:37:12.789Z,59.20
2023-03-06T06:39:39.581Z,59.10
2023-03-06T06:42:28.617Z,59.20
2023-03-06T06:44:55.005Z,59.20
2023-03-06T06:47:24.522Z,59.30
2023-03-06T06:49:52.785Z,59.30
2023-03-06T06:52:19.825Z,59.40
2023-03-06T06:54:46.755Z,59.30
2023-03-06T06:57:13.979Z,59.30
2023-03-06T06:59:40.726Z,59.40
2023-03-06T07:02:07.656Z,59.40
2023-03-06T07:04:34.537Z,59.50
2023-03-06T07:07:01.369Z,59.40
2023-03-06T07:09:30.211Z,59.50
2023-03-06T07:11:57.435Z,59.50
2023-03-06T07:14:24.368Z,59.50
2023-03-06T07:16:51.105Z,59.50
2023-03-06T07:19:17.859Z,59.40
2023-03-06T07:21:44.692Z,59.40
2023-03-06T07:24:11.402Z,59.40
2023-03-06T07:26:39.200Z,59.40
2023-03-06T07:29:05.909Z,59.50
2023-03-06T07:31:32.908Z,59.50
2023-03-06T07:33:59.723Z,59.60
2023-03-06T07:36:27.509Z,59.60
2023-03-06T07:38:54.219Z,59.60
2023-03-06T07:41:22.581Z,59.60
2023-03-06T07:43:50.533Z,59.60
2023-03-06T07:46:17.787Z,59.70
2023-03-06T07:48:44.823Z,59.70
2023-03-06T07:51:17.343Z,59.70
2023-03-06T07:53:44.490Z,59.70
2023-03-06T07:56:12.039Z,59.80
2023-03-06T07:58:40.365Z,59.80
2023-03-06T08:01:10.103Z,59.80
2023-03-06T08:03:37.865Z,59.80
2023-03-06T08:06:15.197Z,59.90
2023-03-06T08:08:43.408Z,59.90
2023-03-06T08:11:12.541Z,60.00
2023-03-06T08:13:39.659Z,60.00
2023-03-06T08:16:07.264Z,60.00
2023-03-06T08:18:35.211Z,60.00
2023-03-06T08:21:04.315Z,60.00
2023-03-06T08:23:31.211Z,60.00
2023-03-06T08:25:59.265Z,60.10
2023-03-06T08:28:26.581Z,60.10
2023-03-06T08:30:53.888Z,60.80
2023-03-06T08:33:20.750Z,60.00
2023-03-06T08:35:47.564Z,60.00
2023-03-06T08:38:14.388Z,60.00
2023-03-06T08:40:41.309Z,60.10
2023-03-06T08:43:13.997Z,60.00
2023-03-06T08:45:41.245Z,60.10
2023-03-06T08:48:08.145Z,60.30
2023-03-06T08:50:34.961Z,60.50
2023-03-06T08:53:01.737Z,60.70
2023-03-06T08:55:28.570Z,60.90
2023-03-06T08:57:55.363Z,61.40
2023-03-06T09:00:22.226Z,61.60
2023-03-06T09:02:49.029Z,61.80
2023-03-06T09:05:15.814Z,62.00
2023-03-06T09:07:42.574Z,62.30
2023-03-06T09:10:14.462Z,62.50
2023-03-06T09:12:50.166Z,62.70
2023-03-06T09:15:20.094Z,62.60
2023-03-06T09:17:47.581Z,62.50
2023-03-06T09:20:14.947Z,62.20
2023-03-06T09:22:45.655Z,61.80
2023-03-06T09:25:13.792Z,61.70
2023-03-06T09:27:41.255Z,61.70
2023-03-06T09:30:09.109Z,61.30
2023-03-06T09:32:35.919Z,61.00
2023-03-06T09:35:02.871Z,61.00
2023-03-06T09:37:29.581Z,61.40
2023-03-06T09:39:57.662Z,61.70
2023-03-06T09:42:24.833Z,62.10
2023-03-06T09:44:56.810Z,62.40
2023-03-06T09:47:49.560Z,61.90
2023-03-06T09:50:37.339Z,61.40
2023-03-06T09:53:23.843Z,60.90
2023-03-06T09:56:03.776Z,60.50
2023-03-06T09:58:41.817Z,60.10
2023-03-06T10:01:31.685Z,59.90
2023-03-06T10:04:24.978Z,59.50
2023-03-06T10:07:01.924Z,59.10
2023-03-06T10:09:41.041Z,59.50
2023-03-06T10:12:28.726Z,59.60
2023-03-06T10:15:25.195Z,59.70
2023-03-06T10:17:52.044Z,59.60
2023-03-06T10:20:26.138Z,59.50
2023-03-06T10:23:24.668Z,59.00
2023-03-06T10:26:01.220Z,58.40
2023-03-06T10:28:37.296Z,58.30
2023-03-06T10:31:10.743Z,58.30
2023-03-06T10:33:54.163Z,58.60
2023-03-06T10:36:23.176Z,58.70
2023-03-06T10:38:50.051Z,58.60
2023-03-06T10:41:23.098Z,58.20
2023-03-06T10:44:05.225Z,57.60
2023-03-06T10:46:34.302Z,57.10
2023-03-06T10:49:04.229Z,56.90
2023-03-06T10:51:31.672Z,57.20
2023-03-06T10:54:04.089Z,57.30
2023-03-06T10:56:34.496Z,57.30
2023-03-06T10:59:13.254Z,57.20
2023-03-06T11:01:45.364Z,56.80
2023-03-06T11:04:27.622Z,56.30
2023-03-06T11:07:21.724Z,55.90
2023-03-06T11:09:59.809Z,55.60
2023-03-06T11:12:32.263Z,55.40
2023-03-06T11:15:21.089Z,55.10
2023-03-06T11:17:51.371Z,55.00
2023-03-06T11:20:25.944Z,55.40
2023-03-06T11:22:56.977Z,55.70
2023-03-06T11:25:30.200Z,55.70
2023-03-06T11:28:13.646Z,54.70
2023-03-06T11:30:45.398Z,53.70
2023-03-06T11:33:29.733Z,53.30
2023-03-06T11:35:58.509Z,52.80
2023-03-06T11:38:34.693Z,52.70
2023-03-06T11:41:02.658Z,52.30
2023-03-06T11:43:47.605Z,52.00
2023-03-06T11:46:23.835Z,51.50
2023-03-06T11:49:02.671Z,51.50
2023-03-06T11:51:34.741Z,51.50
2023-03-06T11:54:02.752Z,51.40
2023-03-06T11:56:48.250Z,51.50
2023-03-06T11:59:46.537Z,51.10
2023-03-06T12:02:40.277Z,51.30
2023-03-06T12:05:34.178Z,51.40
2023-03-06T12:08:25.161Z,51.10
2023-03-06T12:10:57.897Z,50.70
2023-03-06T12:13:33.695Z,51.00
2023-03-06T12:16:09.490Z,51.10
2023-03-06T12:19:05.101Z,51.70
2023-03-06T12:21:43.689Z,51.40
2023-03-06T12:24:23.593Z,51.10
2023-03-06T12:27:20.868Z,50.00
2023-03-06T12:30:06.434Z,49.80
2023-03-06T12:32:44.181Z,49.30
2023-03-06T12:35:30.008Z,48.60
2023-03-06T12:37:59.579Z,48.10
2023-03-06T12:40:55.223Z,48.00
2023-03-06T12:43:43.627Z,47.60
2023-03-06T12:46:15.679Z,47.90
2023-03-06T12:48:45.069Z,48.20
2023-03-06T12:51:15.733Z,48.30
2023-03-06T12:53:42.811Z,48.30
2023-03-06T12:56:09.751Z,48.20
2023-03-06T12:58:50.574Z,47.80
2023-03-06T13:01:55.969Z,47.30
2023-03-06T13:04:51.468Z,47.30
2023-03-06T13:07:22.671Z,47.00
2023-03-06T13:10:20.200Z,46.90
2023-03-06T13:13:01.566Z,46.20
2023-03-06T13:15:45.855Z,46.00
2023-03-06T13:18:21.892Z,45.70
2023-03-06T13:20:56.147Z,45.80
2023-03-06T13:23:29.256Z,45.90
2023-03-06T13:25:57.868Z,45.90
2023-03-06T13:28:26.145Z,45.40
2023-03-06T13:30:53.436Z,45.60
2023-03-06T13:33:40.154Z,45.20
2023-03-06T13:36:23.197Z,44.70
2023-03-06T13:38:52.635Z,45.20
2023-03-06T13:41:22.415Z,45.00
2023-03-06T13:43:51.736Z,44.70
2023-03-06T13:46:36.697Z,44.80
2023-03-06T13:49:09.478Z,44.70
2023-03-06T13:51:37.301Z,45.00
2023-03-06T13:54:35.397Z,45.00
2023-03-06T13:57:07.995Z,45.20
2023-03-06T14:00:10.263Z,45.20
2023-03-06T14:03:01.484Z,45.00
2023-03-06T14:05:44.705Z,45.00
2023-03-06T14:08:24.309Z,45.50
2023-03-06T14:11:20.500Z,45.70
2023-03-06T14:13:52.711Z,46.00
2023-03-06T14:16:32.720Z,46.10
2023-03-06T14:19:04.424Z,46.20
2023-03-06T14:21:35.122Z,46.10
2023-03-06T14:24:04.309Z,46.00
2023-03-06T14:26:33.913Z,46.10
2023-03-06T14:29:04.040Z,46.30
2023-03-06T14:31:37.240Z,46.20
2023-03-06T14:34:05.717Z,46.60
2023-03-06T14:36:34.426Z,46.40
2023-03-06T14:39:14.467Z,46.30
2023-03-06T14:41:41.320Z,46.30
2023-03-06T14:44:21.721Z,46.40
2023-03-06T14:46:51.218Z,46.70
2023-03-06T14:49:20.164Z,46.80
2023-03-06T14:51:53.038Z,46.90
2023-03-06T14:54:28.341Z,46.40
2023-03-06T14:56:59.941Z,46.10
2023-03-06T14:59:28.487Z,46.30
2023-03-06T15:02:02.196Z,45.90
2023-03-06T15:04:39.001Z,45.70
2023-03-06T15:07:17.797Z,45.70
2023-03-06T15:09:48.033Z,45.80
2023-03-06T15:12:21.232Z,45.70
2023-03-06T15:15:24.432Z,45.30
2023-03-06T15:17:51.224Z,45.20
2023-03-06T15:20:38.602Z,45.20
2023-03-06T15:23:16.659Z,45.20
2023-03-06T15:26:00.361Z,45.30
2023-03-06T15:28:38.531Z,45.30
2023-03-06T15:31:19.384Z,45.20
2023-03-06T15:34:11.083Z,44.90
2023-03-06T15:36:44.543Z,45.10
2023-03-06T15:39:34.012Z,45.30
2023-03-06T15:42:01.915Z,45.40
2023-03-06T15:44:31.555Z,45.80
2023-03-06T15:47:08.455Z,46.00
2023-03-06T15:49:37.620Z,46.00
2023-03-06T15:52:06.039Z,46.00
2023-03-06T15:54:33.139Z,46.00
2023-03-06T15:57:00.328Z,46.10
2023-03-06T15:59:33.106Z,46.00
2023-03-06T16:02:11.205Z,46.20
2023-03-06T16:04:38.100Z,46.50
2023-03-06T16:07:04.890Z,46.70
2023-03-06T16:09:32.671Z,47.00
2023-03-06T16:11:59.670Z,47.00
2023-03-06T16:14:26.715Z,47.20
2023-03-06T16:16:56.682Z,47.20
2023-03-06T16:19:27.339Z,47.50
2023-03-06T16:21:55.304Z,47.60
2023-03-06T16:24:22.100Z,47.70
2023-03-06T16:26:53.001Z,47.70
2023-03-06T16:29:24.877Z,47.80
2023-03-06T16:31:51.871Z,47.90
2023-03-06T16:34:21.754Z,48.20
2023-03-06T16:36:52.213Z,48.20
2023-03-06T16:39:19.917Z,48.30
2023-03-06T16:41:47.183Z,48.50
2023-03-06T16:44:14.095Z,48.60
2023-03-06T16:46:45.863Z,48.60
2023-03-06T16:49:24.028Z,48.80
2023-03-06T16:51:51.841Z,49.00
2023-03-06T16:54:18.904Z,49.10
2023-03-06T16:56:45.696Z,49.20
2023-03-06T16:59:12.845Z,49.30
2023-03-06T17:01:42.936Z,49.30
2023-03-06T17:04:10.097Z,49.40
2023-03-06T17:06:37.091Z,49.60
2023-03-06T17:09:04.605Z,49.50
2023-03-06T17:11:33.724Z,49.70
2023-03-06T17:14:01.615Z,50.20
2023-03-06T17:16:28.348Z,50.50
2023-03-06T17:18:55.094Z,50.60
2023-03-06T17:21:21.841Z,50.60
2023-03-06T17:23:48.605Z,50.60
2023-03-06T17:26:18.823Z,50.70
2023-03-06T17:28:46.656Z,50.80
2023-03-06T17:31:22.875Z,50.80
2023-03-06T17:33:51.360Z,50.80
2023-03-06T17:36:19.415Z,50.90
2023-03-06T17:38:46.414Z,50.90
2023-03-06T17:41:13.697Z,51.00
2023-03-06T17:43:40.787Z,50.90
2023-03-06T17:46:09.950Z,51.00
2023-03-06T17:48:37.222Z,51.00
2023-03-06T17:51:04.400Z,51.00
2023-03-06T17:53:31.458Z,51.10
2023-03-06T17:55:58.223Z,51.10
2023-03-06T17:58:26.195Z,51.20
2023-03-06T18:00:53.180Z,51.20
2023-03-06T18:03:19.917Z,51.10
2023-03-06T18:05:46.703Z,50.90
2023-03-06T18:08:13.520Z,51.00
2023-03-06T18:10:41.886Z,51.00
2023-03-06T18:13:09.550Z,50.80
2023-03-06T18:15:40.479Z,50.90
2023-03-06T18:18:07.926Z,50.80
2023-03-06T18:20:38.397Z,50.80
2023-03-06T18:23:05.252Z,50.90
2023-03-06T18:25:32.367Z,50.70
2023-03-06T18:28:00.131Z,50.80
2023-03-06T18:30:26.869Z,51.00
2023-03-06T18:32:54.137Z,51.10
2023-03-06T18:35:21.313Z,51.00
2023-03-06T18:37:48.070Z,51.20
2023-03-06T18:40:15.134Z,51.10
2023-03-06T18:42:42.241Z,51.20
2023-03-06T18:45:10.031Z,51.20
2023-03-06T18:47:36.917Z,51.30
2023-03-06T18:50:03.812Z,51.30
2023-03-06T18:52:30.519Z,51.20
2023-03-06T18:54:57.288Z,51.20
2023-03-06T18:57:24.045Z,51.30
2023-03-06T18:59:50.835Z,51.20
2023-03-06T19:02:17.649Z,51.30
2023-03-06T19:04:44.352Z,51.30
2023-03-06T19:07:13.020Z,51.30
2023-03-06T19:09:39.938Z,51.30
2023-03-06T19:12:06.830Z,51.40
2023-03-06T19:14:33.684Z,51.60
2023-03-06T19:17:00.490Z,51.60
2023-03-06T19:19:29.264Z,51.60
2023-03-06T19:21:59.498Z,51.60
2023-03-06T19:24:26.540Z,51.80
2023-03-06T19:26:53.406Z,51.90
2023-03-06T19:29:20.209Z,51.80
2023-03-06T19:31:47.039Z,51.70
2023-03-06T19:34:13.774Z,51.80
2023-03-06T19:36:41.031Z,51.70
2023-03-06T19:39:08.196Z,51.70
2023-03-06T19:41:35.081Z,51.80
2023-03-06T19:44:05.921Z,51.70
2023-03-06T19:46:33.225Z,51.70
2023-03-06T19:49:01.821Z,51.70
2023-03-06T19:51:28.900Z,51.90
2023-03-06T19:53:57.026Z,51.80
2023-03-06T19:56:26.855Z,51.80
2023-03-06T19:58:53.680Z,51.80
2023-03-06T20:01:22.893Z,51.80
2023-03-06T20:03:50.653Z,52.00
2023-03-06T20:06:19.351Z,51.90
2023-03-06T20:08:47.096Z,51.90
2023-03-06T20:11:25.680Z,52.00
2023-03-06T20:13:53.329Z,52.00
2023-03-06T20:16:20.481Z,52.00
2023-03-06T20:18:47.239Z,52.10
2023-03-06T20:21:14.446Z,52.20
2023-03-06T20:23:41.825Z,52.30
2023-03-06T20:26:11.797Z,52.40
2023-03-06T20:28:39.560Z,52.50
2023-03-06T20:31:16.771Z,52.50
2023-03-06T20:33:44.896Z,52.70
2023-03-06T20:36:13.465Z,52.70
2023-03-06T20:38:40.344Z,52.80
2023-03-06T20:41:08.789Z,52.90
2023-03-06T20:43:35.727Z,53.00
2023-03-06T20:46:04.075Z,53.00
2023-03-06T20:48:30.970Z,53.20
2023-03-06T20:51:06.643Z,53.20
2023-03-06T20:53:35.144Z,53.40
2023-03-06T20:56:01.899Z,53.40
2023-03-06T20:58:31.467Z,53.60
2023-03-06T21:00:58.709Z,53.70
2023-03-06T21:03:26.284Z,54.00
2023-03-06T21:05:53.033Z,53.90
2023-03-06T21:08:19.806Z,54.10
2023-03-06T21:10:46.768Z,54.10
2023-03-06T21:13:14.131Z,54.30
2023-03-06T21:15:42.249Z,54.20
2023-03-06T21:18:09.357Z,54.40
2023-03-06T21:20:38.688Z,54.40
2023-03-06T21:23:06.012Z,54.50
2023-03-06T21:25:32.942Z,54.60
2023-03-06T21:28:00.202Z,54.70
2023-03-06T21:30:30.252Z,54.80
2023-03-06T21:32:57.050Z,54.90
2023-03-06T21:35:24.166Z,55.00
2023-03-06T21:37:50.978Z,55.80
2023-03-06T21:40:17.973Z,55.20
2023-03-06T21:42:44.694Z,55.30
2023-03-06T21:45:12.028Z,55.40
2023-03-06T21:47:40.893Z,55.50
2023-03-06T21:50:09.734Z,55.50
2023-03-06T21:52:36.728Z,55.60
2023-03-06T21:55:03.780Z,55.60
2023-03-06T21:57:30.733Z,55.70
2023-03-06T21:59:57.468Z,55.80
2023-03-06T22:02:24.302Z,55.80
2023-03-06T22:04:54.211Z,55.90
2023-03-06T22:07:21.268Z,56.10
2023-03-06T22:09:48.132Z,56.10
2023-03-06T22:12:14.856Z,56.10
2023-03-06T22:14:43.825Z,56.30
2023-03-06T22:17:10.584Z,56.30
2023-03-06T22:19:37.321Z,56.40
2023-03-06T22:22:04.418Z,56.50
2023-03-06T22:24:34.049Z,56.60
2023-03-06T22:27:00.771Z,56.70
2023-03-06T22:29:27.467Z,56.70
2023-03-06T22:31:54.223Z,56.80
2023-03-06T22:34:21.005Z,56.90
2023-03-06T22:36:48.178Z,57.00
2023-03-06T22:39:15.233Z,57.00
2023-03-06T22:41:42.008Z,57.20
2023-03-06T22:44:15.126Z,57.10
2023-03-06T22:46:41.974Z,57.30
2023-03-06T22:49:10.996Z,57.30
2023-03-06T22:51:38.244Z,57.40
2023-03-06T22:54:05.764Z,57.50
2023-03-06T22:56:32.724Z,57.50
2023-03-06T22:58:59.630Z,57.60
2023-03-06T23:01:31.061Z,57.70
2023-03-06T23:04:00.166Z,57.70
2023-03-06T23:06:29.630Z,57.80
2023-03-06T23:09:20.449Z,57.90
2023-03-06T23:12:06.128Z,58.00
2023-03-06T23:14:51.797Z,58.00
2023-03-06T23:17:38.813Z,58.10
2023-03-06T23:20:24.318Z,58.20
2023-03-06T23:23:11.115Z,58.20
2023-03-06T23:25:44.086Z,58.30
2023-03-06T23:28:11.803Z,58.30
2023-03-06T23:30:39.410Z,58.40
2023-03-06T23:33:06.621Z,58.40
2023-03-06T23:35:34.802Z,58.40
2023-03-06T23:38:02.486Z,58.50
2023-03-06T23:40:31.400Z,58.50
2023-03-06T23:42:58.171Z,58.60
2023-03-06T23:45:24.978Z,58.60
2023-03-06T23:47:51.718Z,58.60
2023-03-06T23:50:18.767Z,58.70
2023-03-06T23:52:45.779Z,58.70
2023-03-06T23:55:12.768Z,58.80
2023-03-06T23:57:39.921Z,58.70
